createdAt,value
2023-01-10T00:00:37.937Z,97991.44
2023-01-10T00:05:45.597Z,97994.13
2023-01-10T00:10:52.895Z,98016.56
2023-01-10T00:15:58.916Z,98016.63
2023-01-10T00:21:09.548Z,98029.56
2023-01-10T00:26:15.176Z,98042.16
2023-01-10T00:31:20.195Z,98052.84
2023-01-10T00:36:28.119Z,98055.81
2023-01-10T00:41:45.531Z,98055.66
2023-01-10T00:46:50.727Z,98069.25
2023-01-10T00:51:59.789Z,98077.22
2023-01-10T00:57:04.690Z,98087.22
2023-01-10T01:02:09.692Z,98090.72
2023-01-10T01:07:17.487Z,98112.78
2023-01-10T01:12:22.724Z,98120.03
2023-01-10T01:17:28.050Z,98141.38
2023-01-10T01:22:35.921Z,98137.59
2023-01-10T01:27:40.986Z,98152.31
2023-01-10T01:32:46.245Z,98158.59
2023-01-10T01:37:54.373Z,98164.66
2023-01-10T01:42:59.722Z,98165.50
2023-01-10T01:48:11.316Z,98160.56
2023-01-10T01:53:26.918Z,98169.78
2023-01-10T01:58:38.244Z,98172.44
2023-01-10T02:03:44.239Z,98177.56
2023-01-10T02:08:58.020Z,98189.81
2023-01-10T02:14:05.058Z,98188.63
2023-01-10T02:19:20.131Z,98189.97
2023-01-10T02:24:56.080Z,98196.25
2023-01-10T02:30:39.111Z,98195.44
2023-01-10T02:36:01.791Z,98211.94
2023-01-10T02:41:17.970Z,98217.91
2023-01-10T02:46:28.250Z,98214.72
2023-01-10T02:51:36.544Z,98229.59
2023-01-10T02:56:59.869Z,98230.84
2023-01-10T03:02:13.253Z,98257.47
2023-01-10T03:07:30.637Z,98263.41
2023-01-10T03:12:42.982Z,98268.66
2023-01-10T03:17:52.337Z,98281.84
2023-01-10T03:22:59.922Z,98278.66
2023-01-10T03:28:08.741Z,98285.09
2023-01-10T03:33:16.952Z,98301.25
2023-01-10T03:38:32.766Z,98298.47
2023-01-10T03:43:59.299Z,98314.06
2023-01-10T03:49:07.317Z,98323.28
2023-01-10T03:54:18.724Z,98332.59
2023-01-10T03:59:25.721Z,98339.66
2023-01-10T04:04:32.437Z,98349.94
2023-01-10T04:09:40.028Z,98350.56
2023-01-10T04:14:46.743Z,98372.19
2023-01-10T04:19:51.761Z,98390.94
2023-01-10T04:24:59.720Z,98390.09
2023-01-10T04:30:04.755Z,98409.09
2023-01-10T04:35:10.975Z,98423.31
2023-01-10T04:40:23.429Z,98432.47
2023-01-10T04:45:28.710Z,98440.47
2023-01-10T04:50:34.222Z,98449.19
2023-01-10T04:55:42.559Z,98458.19
2023-01-10T05:00:47.611Z,98463.03
2023-01-10T05:05:52.917Z,98466.47
2023-01-10T05:11:00.848Z,98474.41
2023-01-10T05:16:09.118Z,98493.91
2023-01-10T05:21:16.147Z,98494.16
2023-01-10T05:26:26.032Z,98506.16
2023-01-10T05:31:33.084Z,98515.19
2023-01-10T05:36:38.275Z,98531.59
2023-01-10T05:41:47.711Z,98549.00
2023-01-10T05:46:52.896Z,98538.97
2023-01-10T05:52:01.817Z,98568.06
2023-01-10T05:57:09.407Z,98572.03
2023-01-10T06:02:14.486Z,98587.06
2023-01-10T06:07:26.770Z,98588.44
2023-01-10T06:12:35.048Z,98588.09
2023-01-10T06:17:40.770Z,98599.75
2023-01-10T06:22:46.722Z,98613.47
2023-01-10T06:27:54.212Z,98621.13
2023-01-10T06:33:05.275Z,98633.53
2023-01-10T06:38:12.241Z,98644.31
2023-01-10T06:43:32.193Z,98665.16
2023-01-10T07:02:00.907Z,98701.53
2023-01-10T08:08:27.152Z,98801.09
2023-01-10T08:30:29.402Z,98853.63
2023-01-10T09:04:50.329Z,98891.88
2023-01-10T09:09:55.694Z,98898.78
2023-01-10T09:15:00.801Z,98916.47
2023-01-10T09:20:10.334Z,98926.50
2023-01-10T09:25:15.470Z,98941.56
2023-01-10T09:30:21.141Z,98952.09
2023-01-10T09:35:31.100Z,98960.81
2023-01-10T09:40:50.073Z,98951.31
2023-01-10T09:46:03.065Z,98966.91
2023-01-10T09:51:25.115Z,98969.81
2023-01-10T09:56:32.437Z,98962.16
2023-01-10T10:01:38.967Z,98974.03
2023-01-10T10:06:49.367Z,98971.66
2023-01-10T10:12:17.185Z,98976.66
2023-01-10T10:17:35.760Z,98992.22
2023-01-10T10:22:54.744Z,98981.94
2023-01-10T10:28:14.423Z,98978.78
2023-01-10T10:33:35.514Z,98966.38
2023-01-10T10:38:50.041Z,98979.06
2023-01-10T10:43:58.671Z,98978.53
2023-01-10T10:49:15.763Z,98972.69
2023-01-10T10:54:24.463Z,98983.53
2023-01-10T10:59:29.388Z,98978.25
2023-01-10T11:04:35.234Z,98993.03
2023-01-10T11:09:43.222Z,98995.44
2023-01-10T11:14:51.070Z,99003.88
2023-01-10T11:20:02.881Z,99010.50
2023-01-10T11:25:18.643Z,99014.19
2023-01-10T11:30:27.111Z,99023.16
2023-01-10T11:35:37.172Z,99023.16
2023-01-10T11:40:58.781Z,99021.81
2023-01-10T11:46:07.512Z,99014.16
2023-01-10T11:51:31.275Z,99019.19
2023-01-10T11:56:43.729Z,99015.09
2023-01-10T12:01:57.751Z,99018.28
2023-01-10T12:07:09.269Z,99026.28
2023-01-10T12:12:23.212Z,99030.53
2023-01-10T12:17:32.688Z,99031.03
2023-01-10T12:22:42.161Z,99044.72
2023-01-10T12:27:51.727Z,99042.06
2023-01-10T12:33:01.782Z,99055.31
2023-01-10T12:38:21.994Z,99055.81
2023-01-10T12:43:50.726Z,99066.28
2023-01-10T12:49:01.273Z,99068.94
2023-01-10T12:54:12.964Z,99070.16
2023-01-10T12:59:36.788Z,99069.28
2023-01-10T13:04:44.217Z,99070.59
2023-01-10T13:09:53.196Z,99073.25
2023-01-10T13:15:06.269Z,99084.63
2023-01-10T13:20:46.966Z,99088.09
2023-01-10T13:26:12.591Z,99099.19
2023-01-10T13:31:33.227Z,99097.63
2023-01-10T13:36:42.018Z,99094.44
2023-01-10T13:42:28.510Z,99104.53
2023-01-10T13:48:23.044Z,99113.75
2023-01-10T13:53:59.969Z,99127.25
2023-01-10T13:59:22.173Z,99139.69
2023-01-10T14:04:32.784Z,99146.84
2023-01-10T14:09:49.876Z,99142.09
2023-01-10T14:15:02.738Z,99138.38
2023-01-10T14:20:24.733Z,99138.94
2023-01-10T14:25:37.070Z,99147.94
2023-01-10T14:30:43.553Z,99145.28
2023-01-10T14:35:54.210Z,99138.94
2023-01-10T14:41:05.919Z,99141.03
2023-01-10T14:46:18.777Z,99138.91
2023-01-10T14:51:26.441Z,99151.09
2023-01-10T14:56:41.597Z,99141.03
2023-01-10T15:01:49.275Z,99155.84
2023-01-10T15:06:56.709Z,99144.47
2023-01-10T15:12:08.297Z,99158.50
2023-01-10T15:17:21.067Z,99153.72
2023-01-10T15:22:32.584Z,99156.13
2023-01-10T15:27:47.693Z,99166.44
2023-01-10T15:32:55.606Z,99180.19
2023-01-10T15:38:06.629Z,99183.34
2023-01-10T15:43:27.329Z,99189.97
2023-01-10T15:48:35.147Z,99176.72
2023-01-10T15:54:03.604Z,99180.69
2023-01-10T15:59:25.600Z,99189.16
2023-01-10T16:04:37.333Z,99184.91
2023-01-10T16:09:44.635Z,99193.13
2023-01-10T16:14:52.612Z,99187.06
2023-01-10T16:19:57.749Z,99183.34
2023-01-10T16:25:03.008Z,99184.13
2023-01-10T16:30:28.192Z,99181.25
2023-01-10T16:35:33.633Z,99179.13
2023-01-10T16:40:41.424Z,99173.28
2023-01-10T16:45:52.211Z,99179.91
2023-01-10T16:50:57.792Z,99170.13
2023-01-10T16:56:04.940Z,99171.72
2023-01-10T17:01:19.227Z,99174.34
2023-01-10T17:06:24.599Z,99163.78
2023-01-10T17:11:33.169Z,99170.13
2023-01-10T17:16:43.911Z,99162.72
2023-01-10T17:21:49.122Z,99163.78
2023-01-10T17:26:54.206Z,99163.25
2023-01-10T17:32:02.758Z,99173.81
2023-01-10T17:37:13.103Z,99178.06
2023-01-10T17:42:18.988Z,99161.13
2023-01-10T17:47:27.332Z,99166.13
2023-01-10T17:52:33.115Z,99161.09
2023-01-10T17:57:39.551Z,99168.25
2023-01-10T18:02:47.349Z,99153.41
2023-01-10T18:07:53.444Z,99153.41
2023-01-10T18:13:03.327Z,99165.84
2023-01-10T18:18:11.618Z,99177.19
2023-01-10T18:23:27.617Z,99186.72
2023-01-10T18:28:46.650Z,99194.06
2023-01-10T18:33:58.376Z,99190.69
2023-01-10T18:39:03.970Z,99190.66
2023-01-10T18:44:08.963Z,99185.88
2023-01-10T18:49:19.003Z,99180.94
2023-01-10T18:54:23.963Z,99183.59
2023-01-10T18:59:29.190Z,99177.22
2023-01-10T19:04:37.322Z,99173.81
2023-01-10T19:09:47.561Z,99178.81
2023-01-10T19:14:52.664Z,99174.00
2023-01-10T19:20:01.021Z,99163.97
2023-01-10T19:25:09.275Z,99175.03
2023-01-10T19:30:17.796Z,99159.16
2023-01-10T19:35:26.001Z,99169.16
2023-01-10T19:40:34.377Z,99160.84
2023-01-10T19:45:46.719Z,99159.28
2023-01-10T19:50:54.929Z,99152.91
2023-01-10T19:56:09.700Z,99147.63
2023-01-10T20:01:18.390Z,99136.19
2023-01-10T20:06:27.736Z,99144.41
2023-01-10T20:11:37.741Z,99138.03
2023-01-10T20:16:44.753Z,99138.63
2023-01-10T20:21:56.575Z,99129.53
2023-01-10T20:27:09.587Z,99126.69
2023-01-10T20:32:15.655Z,99128.47
2023-01-10T20:37:24.912Z,99120.56
2023-01-10T20:42:30.084Z,99119.81
2023-01-10T20:47:35.348Z,99127.22
2023-01-10T20:52:45.118Z,99131.16
2023-01-10T20:57:50.156Z,99126.59
2023-01-10T21:02:59.626Z,99130.84
2023-01-10T21:08:07.658Z,99122.59
2023-01-10T21:13:15.053Z,99111.84
2023-01-10T21:18:26.533Z,99125.53
2023-01-10T21:23:34.337Z,99109.84
2023-01-10T21:28:42.449Z,99105.38
2023-01-10T21:33:48.675Z,99102.97
2023-01-10T21:38:58.420Z,99094.50
2023-01-10T21:44:03.397Z,99100.38
2023-01-10T21:49:10.846Z,99106.16
2023-01-10T21:54:18.595Z,99100.84
2023-01-10T21:59:25.618Z,99102.31
2023-01-10T22:04:30.821Z,99114.94
2023-01-10T22:09:39.267Z,99115.47
2023-01-10T22:14:44.572Z,99112.75
2023-01-10T22:19:49.505Z,99110.56
2023-01-10T22:24:58.247Z,99090.50
2023-01-10T22:30:03.232Z,99085.59
2023-01-10T22:35:13.733Z,99060.69
2023-01-10T22:40:21.572Z,99070.19
2023-01-10T22:45:26.630Z,99060.03
2023-01-10T22:50:31.605Z,99047.78
2023-01-10T22:55:39.787Z,99039.75
2023-01-10T23:00:44.812Z,99026.22
2023-01-10T23:05:49.732Z,99024.44
2023-01-10T23:10:57.973Z,99012.84
2023-01-10T23:16:04.970Z,99014.13
2023-01-10T23:21:11.615Z,99015.75
2023-01-10T23:26:19.469Z,99002.06
2023-01-10T23:31:29.389Z,99004.00
2023-01-10T23:36:34.645Z,98996.47
2023-01-10T23:41:42.197Z,98984.69
2023-01-10T23:46:47.166Z,98989.66
2023-01-10T23:51:52.081Z,98975.41
2023-01-10T23:57:00.084Z,98965.16
